Time;durP1;ratioP1;P1;durP2;ratioP2;P2;SDS_P1;SDS_P2;PMS_P1;PMS_P2;Temp;Humidity;BMP_temperature;BMP_pressure;BME280_temperature;BME280_humidity;BME280_pressure;Samples;Min_cycle;Max_cycle;Signal;HPM_P1;HPM_P2
2023/12/16 00:00:31;;;;;;;13.52;5.25;;;;;;;6.04;100.00;103699.88;5047447;28;20087;-62
2023/12/16 00:02:56;;;;;;;11.45;5.47;;;;;;;6.04;100.00;103705.03;5047791;28;20595;-62
2023/12/16 00:05:22;;;;;;;10.30;4.93;;;;;;;6.04;100.00;103697.31;5045517;28;20037;-62
2023/12/16 00:07:47;;;;;;;17.10;5.13;;;;;;;6.05;100.00;103700.78;5042697;28;20059;-63
2023/12/16 00:10:13;;;;;;;13.35;4.85;;;;;;;6.04;100.00;103699.88;5047621;28;20029;-62
2023/12/16 00:12:38;;;;;;;10.52;4.20;;;;;;;6.02;100.00;103706.56;5046760;28;20090;-62
2023/12/16 00:15:05;;;;;;;15.02;4.72;;;;;;;6.03;100.00;103717.78;5047670;28;20029;-62
2023/12/16 00:17:30;;;;;;;13.13;5.47;;;;;;;6.01;100.00;103704.72;5047089;28;20465;-62
2023/12/16 00:19:56;;;;;;;17.42;5.15;;;;;;;6.00;100.00;103710.63;5046086;28;20056;-62
2023/12/16 00:22:21;;;;;;;13.48;5.03;;;;;;;6.00;100.00;103708.97;5046021;28;20083;-63
2023/12/16 00:24:46;;;;;;;13.30;3.97;;;;;;;6.00;100.00;103702.91;5040271;28;20132;-62
2023/12/16 00:27:11;;;;;;;9.18;4.45;;;;;;;6.00;100.00;103703.84;5041076;28;20473;-62
2023/12/16 00:29:37;;;;;;;11.93;4.22;;;;;;;6.01;100.00;103705.63;5047241;28;20017;-62
2023/12/16 00:32:02;;;;;;;10.77;3.53;;;;;;;6.06;100.00;103702.66;5034350;28;20108;-62
2023/12/16 00:34:28;;;;;;;12.05;3.85;;;;;;;6.05;100.00;103698.19;5051655;28;20029;-63
2023/12/16 00:36:54;;;;;;;11.88;3.85;;;;;;;6.08;100.00;103694.28;5037234;28;20021;-62
2023/12/16 00:39:19;;;;;;;10.02;4.05;;;;;;;6.09;100.00;103690.06;5048980;28;20374;-63
2023/12/16 00:41:44;;;;;;;9.35;3.97;;;;;;;6.11;100.00;103671.44;5056896;28;20557;-62
2023/12/16 00:44:10;;;;;;;9.43;3.95;;;;;;;6.10;100.00;103677.31;5045753;28;20021;-62
2023/12/16 00:46:35;;;;;;;13.20;4.03;;;;;;;6.10;100.00;103682.47;5047118;28;20024;-62
2023/12/16 00:49:00;;;;;;;13.10;4.07;;;;;;;6.10;100.00;103677.31;5045571;28;20045;-63
2023/12/16 00:51:26;;;;;;;13.57;4.07;;;;;;;6.08;100.00;103680.53;5038673;28;20104;-62
2023/12/16 00:53:51;;;;;;;11.70;4.30;;;;;;;6.09;100.00;103684.91;5041368;28;20055;-62
2023/12/16 00:56:17;;;;;;;11.82;4.20;;;;;;;6.10;100.00;103686.72;5027266;28;20493;-62
2023/12/16 00:58:43;;;;;;;12.10;4.45;;;;;;;6.09;100.00;103688.41;5030414;28;20013;-63
2023/12/16 01:01:08;;;;;;;12.15;3.97;;;;;;;6.09;100.00;103682.34;5039465;28;20033;-61
2023/12/16 01:03:34;;;;;;;11.40;3.60;;;;;;;6.11;100.00;103678.25;5049245;28;20053;-62
2023/12/16 01:06:00;;;;;;;12.93;3.83;;;;;;;6.11;100.00;103678.25;5041213;28;20124;-62
2023/12/16 01:08:25;;;;;;;10.15;4.60;;;;;;;6.11;100.00;103688.53;5038544;28;20033;-62
2023/12/16 01:10:50;;;;;;;10.40;3.92;;;;;;;6.10;100.00;103685.06;5045533;28;20036;-63
2023/12/16 01:13:15;;;;;;;13.20;4.30;;;;;;;6.11;100.00;103685.97;5031621;28;20100;-62
2023/12/16 01:15:41;;;;;;;10.57;3.85;;;;;;;6.12;100.00;103690.34;5048881;28;20239;-63
2023/12/16 01:18:07;;;;;;;9.57;3.00;;;;;;;6.16;100.00;103688.97;5040157;28;20378;-62
2023/12/16 01:20:33;;;;;;;13.32;3.75;;;;;;;6.11;100.00;103684.31;5064108;28;20031;-63
2023/12/16 01:22:58;;;;;;;11.55;3.90;;;;;;;6.15;100.00;103688.09;5055260;28;20025;-62
2023/12/16 01:25:23;;;;;;;8.85;3.72;;;;;;;6.13;100.00;103694.75;5063584;28;20105;-62
2023/12/16 01:27:49;;;;;;;11.13;3.28;;;;;;;6.13;100.00;103693.06;5049400;28;20481;-62
2023/12/16 01:30:14;;;;;;;13.10;3.60;;;;;;;6.13;100.00;103689.59;5059471;28;20219;-61
2023/12/16 01:32:39;;;;;;;8.82;3.85;;;;;;;6.17;100.00;103685.66;5060579;28;20020;-62
2023/12/16 01:35:05;;;;;;;10.27;3.67;;;;;;;6.16;100.00;103679.59;5061979;28;20071;-63
2023/12/16 01:37:30;;;;;;;9.02;3.38;;;;;;;6.19;100.00;103679.00;5050111;28;20455;-62
2023/12/16 01:39:55;;;;;;;11.68;3.85;;;;;;;6.16;100.00;103668.38;5050184;28;20025;-62
2023/12/16 01:42:20;;;;;;;10.27;3.50;;;;;;;6.16;100.00;103669.28;5049611;28;20037;-62
2023/12/16 01:44:46;;;;;;;12.82;3.95;;;;;;;6.15;100.00;103666.56;5050400;28;20123;-62
2023/12/16 01:47:11;;;;;;;9.55;3.55;;;;;;;6.16;100.00;103664.13;5048844;28;20033;-62
2023/12/16 01:49:37;;;;;;;15.02;3.70;;;;;;;6.23;100.00;103671.69;5048697;28;20493;-62
2023/12/16 01:52:04;;;;;;;12.90;3.53;;;;;;;6.20;100.00;103670.50;5047092;28;20040;-63
2023/12/16 01:54:30;;;;;;;14.73;3.92;;;;;;;6.23;100.00;103675.94;5050078;28;20415;-62
2023/12/16 01:56:59;;;;;;;10.88;3.55;;;;;;;6.21;100.00;103668.06;5049103;28;20106;-62
2023/12/16 01:59:26;;;;;;;12.88;3.55;;;;;;;6.22;100.00;103675.00;5060859;28;20028;-62
2023/12/16 02:01:51;;;;;;;7.68;3.38;;;;;;;6.20;100.00;103676.56;5054104;28;20503;-62
2023/12/16 02:04:19;;;;;;;10.07;3.42;;;;;;;6.21;100.00;103668.06;5035598;28;20017;-62
2023/12/16 02:06:45;;;;;;;10.32;3.15;;;;;;;6.22;100.00;103667.28;5040658;28;20417;-62
2023/12/16 02:09:13;;;;;;;11.10;3.53;;;;;;;6.20;100.00;103665.34;5049798;28;20029;-62
2023/12/16 02:11:38;;;;;;;8.93;3.67;;;;;;;6.21;100.00;103662.91;5048263;28;20025;-62
2023/12/16 02:14:04;;;;;;;10.50;3.03;;;;;;;6.20;100.00;103671.41;5054033;28;20109;-63
2023/12/16 02:16:29;;;;;;;7.00;2.92;;;;;;;6.17;100.00;103676.25;5052997;28;20028;-62
2023/12/16 02:18:54;;;;;;;10.32;3.85;;;;;;;6.20;100.00;103673.06;5048729;28;20020;-62
2023/12/16 02:21:21;;;;;;;9.35;3.35;;;;;;;6.16;100.00;103678.66;5056273;28;20060;-62
2023/12/16 02:23:47;;;;;;;9.27;2.97;;;;;;;6.16;100.00;103681.25;5048987;28;20021;-62
2023/12/16 02:26:12;;;;;;;14.27;3.92;;;;;;;6.11;100.00;103675.66;5035458;28;20020;-62
2023/12/16 02:28:38;;;;;;;8.00;3.22;;;;;;;6.07;100.00;103679.63;5049595;28;20017;-62
2023/12/16 02:31:04;;;;;;;9.57;3.65;;;;;;;6.06;100.00;103664.91;5040938;28;20020;-62
2023/12/16 02:33:29;;;;;;;12.07;3.90;;;;;;;6.00;100.00;103672.94;5042514;28;20049;-63
2023/12/16 02:35:54;;;;;;;10.18;3.00;;;;;;;5.98;100.00;103682.19;5047984;28;20423;-62
2023/12/16 02:38:20;;;;;;;9.43;3.88;;;;;;;5.96;100.00;103678.53;5040293;28;20026;-62
2023/12/16 02:40:45;;;;;;;14.10;4.10;;;;;;;5.95;100.00;103686.13;5043921;28;20024;-62
2023/12/16 02:43:10;;;;;;;9.55;3.30;;;;;;;5.91;100.00;103692.63;5040085;28;20090;-62
2023/12/16 02:45:36;;;;;;;12.10;4.07;;;;;;;5.89;100.00;103689.00;5032853;28;20079;-62
2023/12/16 02:48:01;;;;;;;9.07;3.17;;;;;;;5.87;100.00;103693.09;5059475;28;20071;-63
2023/12/16 02:50:26;;;;;;;11.00;3.53;;;;;;;5.82;100.00;103682.34;5033708;28;20028;-62
2023/12/16 02:52:52;;;;;;;12.63;3.25;;;;;;;5.77;100.00;103679.31;5045980;28;20012;-62
2023/12/16 02:55:18;;;;;;;11.30;3.42;;;;;;;5.79;100.00;103676.00;5040328;28;20473;-62
2023/12/16 02:57:44;;;;;;;11.27;3.15;;;;;;;5.75;100.00;103675.72;5040707;28;20068;-62
2023/12/16 03:00:10;;;;;;;11.38;3.78;;;;;;;5.72;100.00;103680.53;5030565;28;20225;-62
2023/12/16 03:02:36;;;;;;;10.30;3.22;;;;;;;5.72;100.00;103674.50;5047237;28;20070;-62
2023/12/16 03:05:01;;;;;;;12.85;3.70;;;;;;;5.69;100.00;103663.88;5051354;28;20719;-62
2023/12/16 03:07:26;;;;;;;17.02;3.88;;;;;;;5.69;100.00;103669.94;5058875;28;20115;-62
2023/12/16 03:09:51;;;;;;;11.43;3.58;;;;;;;5.70;100.00;103668.28;5032207;28;20014;-62
2023/12/16 03:12:17;;;;;;;10.55;3.92;;;;;;;5.74;100.00;103668.72;5028952;28;20493;-62
2023/12/16 03:14:42;;;;;;;9.77;3.47;;;;;;;5.75;100.00;103673.13;5054453;28;20079;-63
2023/12/16 03:17:08;;;;;;;12.48;4.18;;;;;;;5.72;100.00;103670.25;5032106;28;20025;-62
2023/12/16 03:19:33;;;;;;;10.98;3.88;;;;;;;5.71;100.00;103673.59;5028598;28;20627;-62
2023/12/16 03:21:58;;;;;;;12.95;4.13;;;;;;;5.69;100.00;103675.09;5039243;28;20032;-62
2023/12/16 03:24:24;;;;;;;9.32;3.38;;;;;;;5.67;100.00;103666.31;5046040;28;20027;-62
2023/12/16 03:26:49;;;;;;;11.52;3.85;;;;;;;5.67;100.00;103668.00;5047780;28;20108;-62
2023/12/16 03:29:14;;;;;;;9.38;3.67;;;;;;;5.69;100.00;103669.03;5048688;28;20033;-63
2023/12/16 03:31:39;;;;;;;12.35;3.88;;;;;;;5.64;100.00;103676.31;5048693;28;20073;-62
2023/12/16 03:34:05;;;;;;;12.82;3.97;;;;;;;5.64;100.00;103671.16;5047881;28;20021;-62
2023/12/16 03:36:30;;;;;;;11.80;4.18;;;;;;;5.60;100.00;103669.03;5047585;28;20033;-62
2023/12/16 03:38:56;;;;;;;13.15;4.20;;;;;;;5.63;100.00;103671.94;5034814;28;20021;-62
2023/12/16 03:41:21;;;;;;;11.50;4.03;;;;;;;5.62;100.00;103672.69;5047922;28;20033;-62
2023/12/16 03:43:47;;;;;;;9.88;3.90;;;;;;;5.62;100.00;103670.09;5047105;28;20037;-62
2023/12/16 03:46:12;;;;;;;14.18;3.40;;;;;;;5.64;100.00;103671.16;5047554;28;20384;-62
2023/12/16 03:48:38;;;;;;;7.78;3.50;;;;;;;5.66;100.00;103679.97;5046897;28;20049;-62
2023/12/16 03:51:03;;;;;;;10.63;3.40;;;;;;;5.69;100.00;103669.03;5047782;28;20040;-62
2023/12/16 03:53:29;;;;;;;11.98;3.90;;;;;;;5.69;100.00;103677.66;5047838;28;20029;-62
2023/12/16 03:55:54;;;;;;;12.60;4.32;;;;;;;5.69;100.00;103680.25;5046230;28;20028;-62
2023/12/16 03:58:19;;;;;;;10.00;4.13;;;;;;;5.68;100.00;103672.38;5047644;28;20036;-63
2023/12/16 04:00:45;;;;;;;11.93;4.07;;;;;;;5.67;100.00;103666.31;5034276;28;20400;-62
2023/12/16 04:03:10;;;;;;;11.85;4.63;;;;;;;5.70;100.00;103673.44;5047013;28;20032;-63
2023/12/16 04:05:36;;;;;;;11.18;4.07;;;;;;;5.67;100.00;103666.31;5046904;28;20029;-63
2023/12/16 04:08:01;;;;;;;10.73;3.83;;;;;;;5.68;100.00;103663.00;5058125;28;20039;-62
2023/12/16 04:10:28;;;;;;;9.30;4.03;;;;;;;5.73;100.00;103666.94;5039903;28;20064;-62
2023/12/16 04:12:53;;;;;;;17.50;4.75;;;;;;;5.74;100.00;103668.72;5053718;28;20025;-62
2023/12/16 04:15:18;;;;;;;14.13;4.68;;;;;;;5.75;100.00;103674.78;5047499;28;20101;-63
2023/12/16 04:17:43;;;;;;;16.13;4.55;;;;;;;5.73;100.00;103676.31;5057612;28;20031;-62
2023/12/16 04:20:09;;;;;;;10.23;4.25;;;;;;;5.74;100.00;103679.03;5064406;28;20063;-63
2023/12/16 04:22:36;;;;;;;10.48;4.32;;;;;;;5.72;100.00;103680.53;5049479;28;20029;-63
2023/12/16 04:25:09;;;;;;;12.15;4.18;;;;;;;5.74;100.00;103678.09;5047491;28;20104;-62
2023/12/16 04:27:34;;;;;;;10.73;3.70;;;;;;;5.74;100.00;103684.16;5045442;28;20072;-62
2023/12/16 04:30:00;;;;;;;10.85;3.67;;;;;;;5.75;100.00;103683.44;5037480;28;20390;-62
2023/12/16 04:32:25;;;;;;;11.13;3.47;;;;;;;5.75;100.00;103670.56;5056408;28;20457;-62
2023/12/16 04:34:50;;;;;;;10.98;4.30;;;;;;;5.76;100.00;103671.44;5029718;28;20078;-62
2023/12/16 04:37:16;;;;;;;13.48;4.38;;;;;;;5.72;100.00;103665.09;5046748;28;20025;-62
2023/12/16 04:39:41;;;;;;;12.35;3.70;;;;;;;5.72;100.00;103664.22;5031103;28;20057;-62
2023/12/16 04:42:07;;;;;;;9.27;3.70;;;;;;;5.71;100.00;103664.94;5044450;28;20021;-63
2023/12/16 04:44:32;;;;;;;15.57;4.70;;;;;;;5.76;100.00;103656.94;5050142;28;20063;-62
2023/12/16 04:46:57;;;;;;;11.63;4.10;;;;;;;5.72;100.00;103657.38;5050730;28;20037;-62
2023/12/16 04:49:23;;;;;;;11.15;4.20;;;;;;;5.71;100.00;103652.09;5050728;28;20048;-62
2023/12/16 04:51:48;;;;;;;10.18;4.00;;;;;;;5.71;100.00;103653.00;5051024;28;20083;-62
2023/12/16 04:54:13;;;;;;;10.68;4.13;;;;;;;5.72;100.00;103662.53;5049457;28;20033;-62
2023/12/16 04:56:39;;;;;;;10.57;3.92;;;;;;;5.70;100.00;103658.00;5050987;28;20037;-62
2023/12/16 04:59:04;;;;;;;15.25;4.13;;;;;;;5.66;100.00;103656.81;5050658;28;20085;-61
2023/12/16 05:01:29;;;;;;;15.75;3.80;;;;;;;5.67;100.00;103671.47;5060240;28;20494;-62
2023/12/16 05:03:55;;;;;;;10.85;3.88;;;;;;;5.67;100.00;103660.28;5038884;28;20039;-62
2023/12/16 05:06:21;;;;;;;14.55;4.57;;;;;;;5.67;100.00;103658.59;5053927;28;20029;-62
2023/12/16 05:08:46;;;;;;;13.85;3.90;;;;;;;5.64;100.00;103660.88;5050718;28;20056;-63
2023/12/16 05:11:12;;;;;;;10.65;4.00;;;;;;;5.61;100.00;103660.59;5048752;28;20033;-62
2023/12/16 05:13:37;;;;;;;11.15;4.10;;;;;;;5.59;100.00;103651.81;5048637;28;20024;-62
2023/12/16 05:16:02;;;;;;;9.80;4.35;;;;;;;5.57;100.00;103653.31;5054819;28;20068;-62
2023/12/16 05:18:28;;;;;;;12.95;4.97;;;;;;;5.57;100.00;103661.03;5050687;28;20055;-63
2023/12/16 05:20:54;;;;;;;11.80;4.22;;;;;;;5.53;100.00;103667.53;5048379;28;20094;-61
2023/12/16 05:23:19;;;;;;;13.10;3.85;;;;;;;5.51;100.00;103674.19;5050712;28;20029;-62
2023/12/16 05:25:45;;;;;;;12.60;3.88;;;;;;;5.51;100.00;103679.34;5060519;28;20369;-62
2023/12/16 05:28:10;;;;;;;10.82;4.47;;;;;;;5.49;100.00;103684.34;5039537;28;20057;-62
2023/12/16 05:30:35;;;;;;;13.85;4.47;;;;;;;5.48;100.00;103686.78;5047432;28;20024;-63
2023/12/16 05:33:01;;;;;;;10.90;4.75;;;;;;;5.42;100.00;103679.34;5031255;28;20029;-63
2023/12/16 05:35:26;;;;;;;11.10;4.05;;;;;;;5.44;100.00;103672.69;5030156;28;20084;-62
2023/12/16 05:37:51;;;;;;;13.65;3.97;;;;;;;5.42;100.00;103666.50;5062963;28;20376;-62
2023/12/16 05:40:16;;;;;;;15.05;3.80;;;;;;;5.41;100.00;103667.25;5050688;28;20078;-61
2023/12/16 05:42:42;;;;;;;13.25;3.60;;;;;;;5.38;100.00;103672.06;5049446;28;20032;-62
2023/12/16 05:45:08;;;;;;;15.27;4.60;;;;;;;5.38;100.00;103666.94;5050203;28;20662;-62
2023/12/16 05:47:34;;;;;;;12.82;3.83;;;;;;;5.37;100.00;103672.84;5048693;28;20103;-62
2023/12/16 05:49:59;;;;;;;11.68;3.80;;;;;;;5.33;100.00;103674.19;5061059;28;20488;-62
2023/12/16 05:52:25;;;;;;;12.38;4.82;;;;;;;5.34;100.00;103675.13;5047358;28;20041;-62
2023/12/16 05:54:50;;;;;;;13.25;4.10;;;;;;;5.32;100.00;103662.13;5042346;28;20037;-62
2023/12/16 05:57:15;;;;;;;10.77;3.92;;;;;;;5.27;100.00;103664.22;5044704;28;20029;-62
2023/12/16 05:59:41;;;;;;;10.65;3.83;;;;;;;5.28;100.00;103663.47;5031461;28;20132;-62
2023/12/16 06:02:07;;;;;;;11.20;3.85;;;;;;;5.26;100.00;103664.97;5041375;28;20111;-62
2023/12/16 06:04:32;;;;;;;15.85;3.78;;;;;;;5.23;100.00;103654.41;5056276;28;20033;-62
2023/12/16 06:06:57;;;;;;;14.10;4.40;;;;;;;5.22;100.00;103655.13;5037817;28;20023;-62
2023/12/16 06:09:23;;;;;;;11.48;3.80;;;;;;;5.20;100.00;103659.22;5062119;28;20028;-63
2023/12/16 06:11:48;;;;;;;13.20;4.93;;;;;;;5.18;100.00;103665.84;5029698;28;20389;-62
2023/12/16 06:14:13;;;;;;;11.20;4.32;;;;;;;5.16;100.00;103675.09;5042996;28;20021;-62
2023/12/16 06:16:38;;;;;;;12.85;4.07;;;;;;;5.16;100.00;103675.09;5047314;28;20016;-62
2023/12/16 06:19:04;;;;;;;10.70;3.90;;;;;;;5.13;100.00;103669.63;5043775;28;20170;-62
2023/12/16 06:21:32;;;;;;;10.40;4.03;;;;;;;5.10;100.00;103671.91;5045909;28;20070;-62
2023/12/16 06:23:58;;;;;;;10.75;4.20;;;;;;;5.08;100.00;103674.34;5044490;28;20494;-62
2023/12/16 06:26:23;;;;;;;12.63;3.90;;;;;;;5.05;100.00;103672.34;5047155;28;20117;-63
2023/12/16 06:28:49;;;;;;;11.68;3.70;;;;;;;5.05;100.00;103674.03;5046049;28;20103;-62
2023/12/16 06:31:16;;;;;;;13.02;4.30;;;;;;;5.03;100.00;103666.16;5060204;28;20108;-61
2023/12/16 06:33:41;;;;;;;11.85;3.97;;;;;;;5.02;100.00;103666.91;5040435;28;20057;-62
2023/12/16 06:36:06;;;;;;;12.30;4.60;;;;;;;5.02;100.00;103660.84;5057644;28;20424;-62
2023/12/16 06:38:31;;;;;;;12.40;3.65;;;;;;;5.00;100.00;103663.25;5028108;28;20026;-62
2023/12/16 06:40:57;;;;;;;12.60;3.28;;;;;;;4.96;100.00;103655.09;5054742;28;21162;-62
2023/12/16 06:43:22;;;;;;;9.43;3.50;;;;;;;4.95;100.00;103659.34;5042493;28;20539;-61
2023/12/16 06:45:47;;;;;;;16.50;3.72;;;;;;;4.95;100.00;103664.47;5045747;28;20017;-62
2023/12/16 06:48:12;;;;;;;11.57;3.72;;;;;;;4.94;100.00;103662.66;5046115;28;20036;-61
2023/12/16 06:50:38;;;;;;;15.80;4.05;;;;;;;4.92;100.00;103661.59;5043219;28;20538;-62
2023/12/16 06:53:03;;;;;;;13.73;4.47;;;;;;;4.89;100.00;103658.72;5042450;28;20027;-63
2023/12/16 06:55:28;;;;;;;13.20;3.78;;;;;;;4.87;100.00;103667.94;5041366;28;20029;-62
2023/12/16 06:57:53;;;;;;;9.52;3.55;;;;;;;4.90;100.00;103671.72;5042732;28;20481;-62
2023/12/16 07:00:19;;;;;;;13.70;3.92;;;;;;;4.87;100.00;103670.50;5055420;28;20019;-62
2023/12/16 07:02:44;;;;;;;12.25;4.32;;;;;;;4.89;100.00;103672.47;5042330;28;20101;-62
2023/12/16 07:05:11;;;;;;;13.65;4.30;;;;;;;4.89;100.00;103679.28;5048711;28;20333;-62
2023/12/16 07:07:36;;;;;;;13.60;4.03;;;;;;;4.85;100.00;103672.00;5041396;28;20029;-62
2023/12/16 07:10:02;;;;;;;13.48;4.10;;;;;;;4.84;100.00;103671.09;5044953;28;20108;-62
2023/12/16 07:12:27;;;;;;;14.57;4.05;;;;;;;4.87;100.00;103675.66;5046044;28;20060;-62
2023/12/16 07:14:53;;;;;;;17.33;3.83;;;;;;;4.89;100.00;103674.16;5045295;28;20099;-62
2023/12/16 07:17:18;;;;;;;12.73;3.47;;;;;;;4.87;100.00;103675.66;5045667;28;20032;-62
2023/12/16 07:19:44;;;;;;;13.85;5.07;;;;;;;4.87;100.00;103681.72;5046176;28;20476;-63
2023/12/16 07:22:09;;;;;;;11.88;4.85;;;;;;;4.87;100.00;103683.38;5051464;28;20404;-63
2023/12/16 07:24:34;;;;;;;11.32;4.50;;;;;;;4.85;100.00;103692.56;5042849;28;20017;-62
2023/12/16 07:27:00;;;;;;;10.80;3.83;;;;;;;4.84;100.00;103685.63;5044481;28;20036;-63
2023/12/16 07:29:25;;;;;;;8.95;3.13;;;;;;;4.87;100.00;103685.94;5045435;28;20107;-62
2023/12/16 07:31:50;;;;;;;11.63;3.88;;;;;;;4.86;100.00;103689.22;5042702;28;20029;-62
2023/12/16 07:34:16;;;;;;;13.82;3.88;;;;;;;4.89;100.00;103700.72;5047988;28;20091;-62
2023/12/16 07:36:42;;;;;;;15.40;3.70;;;;;;;4.89;100.00;103705.00;5046819;28;20126;-62
2023/12/16 07:39:08;;;;;;;17.30;3.45;;;;;;;4.86;100.00;103700.44;5043444;28;20063;-62
2023/12/16 07:41:34;;;;;;;13.55;3.95;;;;;;;4.86;100.00;103705.56;5045481;28;20036;-62
2023/12/16 07:43:59;;;;;;;9.93;3.10;;;;;;;4.86;100.00;103696.94;5044598;28;20025;-62
2023/12/16 07:46:25;;;;;;;15.10;4.45;;;;;;;4.86;100.00;103702.09;5044829;28;20090;-62
2023/12/16 07:48:51;;;;;;;12.02;3.58;;;;;;;4.89;100.00;103699.84;5044580;28;20053;-62
2023/12/16 07:51:17;;;;;;;16.10;4.38;;;;;;;4.92;100.00;103697.59;5047971;28;20567;-62
2023/12/16 07:53:48;;;;;;;11.18;2.85;;;;;;;4.91;100.00;103688.06;5042846;28;20098;-62
2023/12/16 07:56:24;;;;;;;12.45;4.18;;;;;;;4.95;100.00;103700.44;5050153;28;20032;-61
2023/12/16 07:58:50;;;;;;;9.27;3.70;;;;;;;4.98;100.00;103700.78;5051649;28;20082;-62
2023/12/16 08:01:18;;;;;;;13.70;3.90;;;;;;;4.95;100.00;103692.75;5050612;28;20065;-61
2023/12/16 08:03:44;;;;;;;13.65;3.03;;;;;;;4.98;100.00;103700.78;5044628;28;20052;-62
2023/12/16 08:06:09;;;;;;;11.00;3.17;;;;;;;5.01;100.00;103703.66;5044254;28;20035;-62
2023/12/16 08:08:36;;;;;;;10.82;3.55;;;;;;;5.00;100.00;103711.22;5032138;28;20397;-61
2023/12/16 08:11:01;;;;;;;11.70;3.15;;;;;;;4.98;100.00;103715.28;5043977;28;20469;-62
2023/12/16 08:13:27;;;;;;;13.48;4.15;;;;;;;5.01;100.00;103716.50;5043863;28;20078;-63
2023/12/16 08:15:52;;;;;;;18.70;4.45;;;;;;;5.02;100.00;103725.09;5034345;28;20033;-63
2023/12/16 08:18:17;;;;;;;10.65;3.13;;;;;;;5.00;100.00;103719.81;5044931;28;20024;-63
2023/12/16 08:20:42;;;;;;;14.60;4.00;;;;;;;5.01;100.00;103726.78;5044498;28;20032;-63
2023/12/16 08:23:08;;;;;;;9.90;3.15;;;;;;;5.04;100.00;103721.94;5044632;28;20041;-62
2023/12/16 08:25:35;;;;;;;10.68;3.33;;;;;;;5.04;100.00;103723.59;5043893;28;20121;-62
2023/12/16 08:28:00;;;;;;;11.25;3.60;;;;;;;5.05;100.00;103726.31;5042331;28;20060;-62
2023/12/16 08:30:26;;;;;;;9.07;2.63;;;;;;;5.07;100.00;103729.09;5044045;28;20057;-61
2023/12/16 08:32:51;;;;;;;11.05;2.75;;;;;;;5.11;100.00;103736.31;5043543;28;20453;-61
2023/12/16 08:35:16;;;;;;;11.88;3.20;;;;;;;5.11;100.00;103727.72;5044412;28;20037;-62
2023/12/16 08:37:42;;;;;;;13.85;3.05;;;;;;;5.15;100.00;103734.97;5030865;28;20048;-62
2023/12/16 08:40:09;;;;;;;15.32;3.75;;;;;;;5.21;100.00;103730.47;5045099;28;20055;-62
2023/12/16 08:42:34;;;;;;;9.27;2.92;;;;;;;5.27;100.00;103731.06;5033037;28;20025;-62
2023/12/16 08:45:00;;;;;;;11.07;4.18;;;;;;;5.32;100.00;103728.06;5044058;28;20746;-62
2023/12/16 08:47:25;;;;;;;12.82;3.72;;;;;;;5.39;100.00;103733.06;5042244;28;20032;-63
2023/12/16 08:49:51;;;;;;;11.55;3.08;;;;;;;5.41;100.00;103723.84;5044195;28;20059;-62
2023/12/16 08:52:16;;;;;;;15.07;3.28;;;;;;;5.45;100.00;103731.09;5056820;28;21201;-62
2023/12/16 08:54:41;;;;;;;10.57;3.20;;;;;;;5.45;100.00;103733.66;5044446;28;20036;-62
2023/12/16 08:57:07;;;;;;;8.18;2.85;;;;;;;5.47;100.00;103729.56;5044539;28;20033;-62
2023/12/16 08:59:32;;;;;;;13.63;3.72;;;;;;;5.52;100.00;103732.63;5045020;28;20461;-61
2023/12/16 09:01:57;;;;;;;12.88;4.07;;;;;;;5.56;100.00;103723.56;5042771;28;20040;-62
2023/12/16 09:04:23;;;;;;;11.65;3.35;;;;;;;5.60;100.00;103718.84;5044497;28;20033;-62
2023/12/16 09:06:48;;;;;;;13.10;3.25;;;;;;;5.64;100.00;103730.34;5047205;28;20368;-62
2023/12/16 09:09:14;;;;;;;14.20;2.97;;;;;;;5.66;100.00;103736.56;5032239;28;20768;-63
2023/12/16 09:11:40;;;;;;;13.43;4.45;;;;;;;5.70;100.00;103754.09;5046892;28;20024;-62
2023/12/16 09:14:06;;;;;;;13.93;3.28;;;;;;;5.71;100.00;103750.78;5049882;28;20025;-62
2023/12/16 09:16:33;;;;;;;12.75;3.58;;;;;;;5.78;100.00;103742.00;5042418;28;20025;-62
2023/12/16 09:18:59;;;;;;;13.32;3.83;;;;;;;5.84;100.00;103747.78;5036672;28;20496;-62
2023/12/16 09:21:25;;;;;;;14.40;3.83;;;;;;;5.85;100.00;103752.13;5047515;28;20244;-63
2023/12/16 09:23:50;;;;;;;10.30;3.40;;;;;;;5.89;100.00;103762.00;5047511;28;20366;-62
2023/12/16 09:26:15;;;;;;;17.55;3.13;;;;;;;5.93;100.00;103755.47;5047754;28;20020;-62
2023/12/16 09:28:41;;;;;;;12.20;3.63;;;;;;;5.96;100.00;103750.63;5042306;28;20028;-62
2023/12/16 09:31:06;;;;;;;11.80;4.43;;;;;;;5.97;100.00;103749.84;5044106;28;20017;-62
2023/12/16 09:33:31;;;;;;;17.50;4.35;;;;;;;6.03;100.00;103753.81;5044641;28;20053;-62
2023/12/16 09:35:56;;;;;;;11.85;3.80;;;;;;;6.07;100.00;103766.25;5044854;28;20017;-61
2023/12/16 09:38:22;;;;;;;12.82;3.20;;;;;;;6.09;100.00;103769.88;5042907;28;20055;-62
2023/12/16 09:40:47;;;;;;;14.18;4.20;;;;;;;6.12;100.00;103772.75;5040867;28;20504;-62
2023/12/16 09:43:16;;;;;;;14.63;5.45;;;;;;;6.18;100.00;103767.28;5058813;28;20047;-62
2023/12/16 09:45:46;;;;;;;8.75;3.25;;;;;;;6.21;100.00;103765.91;5044241;28;20025;-62
2023/12/16 09:48:14;;;;;;;11.18;3.33;;;;;;;6.27;100.00;103769.84;5054677;28;20029;-62
2023/12/16 09:50:41;;;;;;;15.48;4.47;;;;;;;6.32;100.00;103774.69;5047606;28;20496;-62
2023/12/16 09:53:06;;;;;;;16.38;3.38;;;;;;;6.39;100.00;103780.41;5044383;28;20032;-62
2023/12/16 09:55:31;;;;;;;11.98;3.88;;;;;;;6.42;100.00;103776.47;5046073;28;20029;-62
2023/12/16 09:57:59;;;;;;;14.18;4.18;;;;;;;6.45;100.00;103779.38;5045938;28;20167;-62
2023/12/16 10:00:28;;;;;;;15.68;3.80;;;;;;;6.48;100.00;103771.00;5046577;28;20043;-62
2023/12/16 10:02:56;;;;;;;14.80;4.18;;;;;;;6.49;100.00;103768.56;5052617;28;20036;-62
2023/12/16 10:05:22;;;;;;;13.18;4.13;;;;;;;6.54;100.00;103771.59;5040350;28;20079;-62
2023/12/16 10:07:47;;;;;;;11.85;4.13;;;;;;;6.57;100.00;103776.13;5043583;28;20162;-62
2023/12/16 10:10:13;;;;;;;15.23;4.72;;;;;;;6.63;100.00;103780.97;5046464;28;20103;-63
2023/12/16 10:12:38;;;;;;;14.35;4.72;;;;;;;6.64;100.00;103788.84;5056244;28;20464;-63
2023/12/16 10:15:04;;;;;;;10.00;4.72;;;;;;;6.67;100.00;103784.00;5058355;28;20028;-63
2023/12/16 10:17:29;;;;;;;12.15;4.10;;;;;;;6.69;100.00;103781.56;5055333;28;20112;-63
2023/12/16 10:19:55;;;;;;;14.48;5.07;;;;;;;6.73;100.00;103782.00;5044031;28;20078;-62
2023/12/16 10:22:20;;;;;;;15.55;5.10;;;;;;;6.76;100.00;103785.63;5046650;28;20043;-62
2023/12/16 10:24:46;;;;;;;12.13;4.68;;;;;;;6.79;100.00;103778.19;5046955;28;20029;-61
2023/12/16 10:27:11;;;;;;;15.95;4.78;;;;;;;6.85;100.00;103783.94;5056395;28;20412;-62
2023/12/16 10:29:40;;;;;;;12.30;4.57;;;;;;;6.85;100.00;103789.09;5056003;28;20040;-62
2023/12/16 10:32:10;;;;;;;19.73;6.45;;;;;;;6.84;100.00;103788.16;5057541;28;20297;-62
2023/12/16 10:34:36;;;;;;;19.83;5.85;;;;;;;6.87;100.00;103777.25;5044583;28;20021;-62
2023/12/16 10:37:05;;;;;;;18.95;5.60;;;;;;;6.91;100.00;103778.41;5041193;28;20040;-62
2023/12/16 10:39:31;;;;;;;18.50;5.60;;;;;;;6.93;100.00;103782.97;5045296;28;20028;-62
2023/12/16 10:41:56;;;;;;;15.23;5.68;;;;;;;6.94;100.00;103777.03;5034720;28;20060;-62
2023/12/16 10:44:22;;;;;;;16.65;5.72;;;;;;;6.95;100.00;103776.28;5044008;28;20107;-63
2023/12/16 10:46:51;;;;;;;14.40;5.80;;;;;;;6.99;100.00;103767.19;5038818;28;20029;-62
2023/12/16 10:49:17;;;;;;;21.08;6.22;;;;;;;6.99;100.00;103772.34;5045785;28;20056;-63
2023/12/16 10:51:44;;;;;;;14.95;4.85;;;;;;;7.02;100.00;103766.53;5036576;28;20030;-63
2023/12/16 10:54:25;;;;;;;15.80;5.32;;;;;;;7.08;100.00;103762.88;5052986;28;20025;-63
2023/12/16 10:57:12;;;;;;;11.45;5.80;;;;;;;7.12;100.00;103761.50;5052627;28;20039;-62
2023/12/16 10:59:43;;;;;;;12.65;5.53;;;;;;;7.14;100.00;103756.47;5048861;28;20043;-62
2023/12/16 11:02:21;;;;;;;18.45;6.00;;;;;;;7.19;100.00;103757.81;5053844;28;20075;-62
2023/12/16 11:04:51;;;;;;;15.52;6.10;;;;;;;7.18;100.00;103756.91;5039978;28;20074;-62
2023/12/16 11:07:21;;;;;;;16.95;5.97;;;;;;;7.24;100.00;103754.00;5036788;28;20508;-62
2023/12/16 11:09:46;;;;;;;16.88;6.55;;;;;;;7.27;100.00;103753.34;5044889;28;20497;-63
2023/12/16 11:12:12;;;;;;;15.73;5.30;;;;;;;7.27;100.00;103758.50;5046397;28;20116;-62